Time;durP1;ratioP1;P1;durP2;ratioP2;P2;SDS_P1;SDS_P2;PMS_P1;PMS_P2;Temp;Humidity;BMP_temperature;BMP_pressure;BME280_temperature;BME280_humidity;BME280_pressure;Samples;Min_cycle;Max_cycle;Signal;HPM_P1;HPM_P2
2023/10/30 00:00:11;;;;;;;5.90;1.20;;;;;;;;;;705472;27;788;-64
2023/10/30 00:00:31;;;;;;;5.22;1.27;;;;;;;;;;701342;28;5265;-63
2023/10/30 00:00:51;;;;;;;4.40;1.20;;;;;;;;;;703104;28;784;-63
2023/10/30 00:01:11;;;;;;;4.88;1.20;;;;;;;;;;702777;28;1555;-63
2023/10/30 00:01:32;;;;;;;4.67;1.10;;;;;;;;;;702209;28;1281;-64
2023/10/30 00:01:52;;;;;;;3.67;1.20;;;;;;;;;;702819;28;869;-64
2023/10/30 00:02:12;;;;;;;4.03;1.20;;;;;;;;;;702491;28;3732;-63
2023/10/30 00:02:33;;;;;;;6.30;1.27;;;;;;;;;;701522;28;1068;-63
2023/10/30 00:02:53;;;;;;;7.00;1.60;;;;;;;;;;703545;27;868;-64
2023/10/30 00:03:16;;;;;;;4.32;1.10;;;;;;;;;;703461;28;1304;-63
2023/10/30 00:03:36;;;;;;;5.00;1.20;;;;;;;;;;701906;28;4394;-64
2023/10/30 00:03:56;;;;;;;5.63;1.30;;;;;;;;;;703722;28;915;-63
2023/10/30 00:04:18;;;;;;;4.30;1.03;;;;;;;;;;702081;28;1792;-63
2023/10/30 00:04:39;;;;;;;4.28;1.25;;;;;;;;;;702016;28;948;-63
2023/10/30 00:04:59;;;;;;;6.30;1.40;;;;;;;;;;703323;28;883;-63
2023/10/30 00:05:20;;;;;;;7.05;1.20;;;;;;;;;;705433;27;1751;-63
2023/10/30 00:05:41;;;;;;;6.97;1.77;;;;;;;;;;702981;28;795;-63
2023/10/30 00:06:02;;;;;;;6.78;1.30;;;;;;;;;;703008;28;796;-63
2023/10/30 00:06:23;;;;;;;7.75;1.50;;;;;;;;;;700598;28;4422;-63
2023/10/30 00:06:43;;;;;;;5.80;1.20;;;;;;;;;;702564;28;824;-63
2023/10/30 00:07:04;;;;;;;5.47;1.20;;;;;;;;;;702191;28;851;-64
2023/10/30 00:07:27;;;;;;;5.78;1.20;;;;;;;;;;702533;27;1796;-64
2023/10/30 00:07:48;;;;;;;6.00;1.48;;;;;;;;;;705064;27;858;-64
2023/10/30 00:08:10;;;;;;;4.65;1.35;;;;;;;;;;705989;27;1101;-64
2023/10/30 00:08:31;;;;;;;5.78;1.30;;;;;;;;;;701580;28;1485;-64
2023/10/30 00:08:52;;;;;;;7.05;1.25;;;;;;;;;;701785;28;781;-64
2023/10/30 00:09:17;;;;;;;6.25;1.80;;;;;;;;;;703198;28;765;-63
2023/10/30 00:09:38;;;;;;;6.10;1.30;;;;;;;;;;702214;28;4278;-64
2023/10/30 00:09:59;;;;;;;6.03;1.27;;;;;;;;;;702237;28;851;-64
2023/10/30 00:10:21;;;;;;;5.85;1.38;;;;;;;;;;703063;27;1485;-65
2023/10/30 00:10:42;;;;;;;4.63;1.30;;;;;;;;;;705612;27;910;-64
2023/10/30 00:11:03;;;;;;;6.55;1.50;;;;;;;;;;705517;27;803;-63
2023/10/30 00:11:23;;;;;;;5.77;1.30;;;;;;;;;;705272;27;1560;-64
2023/10/30 00:11:43;;;;;;;7.60;1.48;;;;;;;;;;702257;28;830;-64
2023/10/30 00:12:04;;;;;;;6.80;1.23;;;;;;;;;;702327;28;852;-63
2023/10/30 00:12:24;;;;;;;7.80;1.30;;;;;;;;;;699528;28;4509;-64
2023/10/30 00:12:44;;;;;;;6.87;1.50;;;;;;;;;;701066;28;899;-64
2023/10/30 00:13:04;;;;;;;5.73;1.40;;;;;;;;;;699552;28;1350;-63
2023/10/30 00:13:25;;;;;;;5.72;1.20;;;;;;;;;;699586;28;1601;-64
2023/10/30 00:13:45;;;;;;;4.90;1.17;;;;;;;;;;703496;28;982;-63
2023/10/30 00:14:05;;;;;;;5.23;1.33;;;;;;;;;;699835;28;920;-63
2023/10/30 00:14:26;;;;;;;5.80;1.53;;;;;;;;;;702685;28;2053;-64
2023/10/30 00:14:46;;;;;;;4.63;1.30;;;;;;;;;;702446;28;1063;-63
2023/10/30 00:15:07;;;;;;;6.13;1.37;;;;;;;;;;701938;28;963;-64
2023/10/30 00:15:27;;;;;;;6.43;1.53;;;;;;;;;;700825;28;4397;-64
2023/10/30 00:15:47;;;;;;;7.47;2.10;;;;;;;;;;702408;28;947;-64
2023/10/30 00:16:11;;;;;;;6.68;1.40;;;;;;;;;;705272;27;816;-64
2023/10/30 00:16:31;;;;;;;5.75;1.38;;;;;;;;;;705969;27;2146;-64
2023/10/30 00:16:51;;;;;;;6.97;1.25;;;;;;;;;;706326;27;884;-63
2023/10/30 00:17:12;;;;;;;6.33;1.30;;;;;;;;;;706070;27;775;-63
2023/10/30 00:17:32;;;;;;;5.13;1.30;;;;;;;;;;705146;27;1749;-64
2023/10/30 00:17:52;;;;;;;5.25;1.23;;;;;;;;;;706659;27;762;-63
2023/10/30 00:18:13;;;;;;;5.57;1.37;;;;;;;;;;705708;27;1901;-62
2023/10/30 00:18:34;;;;;;;5.80;1.10;;;;;;;;;;703650;27;4338;-64
2023/10/30 00:18:56;;;;;;;6.25;1.40;;;;;;;;;;705588;27;974;-64
2023/10/30 00:19:17;;;;;;;4.53;1.33;;;;;;;;;;704337;27;1011;-63
2023/10/30 00:19:37;;;;;;;5.67;1.40;;;;;;;;;;707166;27;916;-64
2023/10/30 00:19:58;;;;;;;6.30;1.50;;;;;;;;;;705543;27;911;-63
2023/10/30 00:20:19;;;;;;;5.53;1.33;;;;;;;;;;701183;28;1875;-64
2023/10/30 00:20:39;;;;;;;5.85;1.58;;;;;;;;;;701494;28;935;-64
2023/10/30 00:20:59;;;;;;;5.00;1.60;;;;;;;;;;701550;28;923;-63
2023/10/30 00:21:22;;;;;;;6.45;1.23;;;;;;;;;;698743;28;4357;-63
2023/10/30 00:21:43;;;;;;;6.30;1.30;;;;;;;;;;701219;28;768;-64
2023/10/30 00:22:03;;;;;;;4.65;1.30;;;;;;;;;;702083;28;979;-63
2023/10/30 00:22:24;;;;;;;4.28;1.40;;;;;;;;;;703114;27;1526;-64
2023/10/30 00:22:45;;;;;;;5.67;1.40;;;;;;;;;;706628;27;919;-65
2023/10/30 00:23:05;;;;;;;5.55;1.10;;;;;;;;;;705189;27;919;-61
2023/10/30 00:23:26;;;;;;;4.30;1.20;;;;;;;;;;704865;27;1737;-64
2023/10/30 00:23:46;;;;;;;4.57;1.27;;;;;;;;;;705362;27;910;-63
2023/10/30 00:24:06;;;;;;;5.40;1.20;;;;;;;;;;706733;27;860;-64
2023/10/30 00:24:29;;;;;;;6.07;1.30;;;;;;;;;;700077;28;4354;-64
2023/10/30 00:24:49;;;;;;;7.75;1.60;;;;;;;;;;703435;28;3529;-64
2023/10/30 00:25:09;;;;;;;5.97;1.30;;;;;;;;;;703607;28;835;-64
2023/10/30 00:25:30;;;;;;;6.93;1.47;;;;;;;;;;700844;28;1737;-64
2023/10/30 00:25:51;;;;;;;5.83;1.30;;;;;;;;;;702886;28;900;-63
2023/10/30 00:26:12;;;;;;;5.40;1.20;;;;;;;;;;702904;28;1037;-63
2023/10/30 00:26:39;;;;;;;5.80;1.10;;;;;;;;;;698234;28;1939;-63
2023/10/30 00:27:00;;;;;;;4.88;1.30;;;;;;;;;;698458;28;1478;-63
2023/10/30 00:27:20;;;;;;;5.10;1.30;;;;;;;;;;698188;28;4552;-63
2023/10/30 00:27:41;;;;;;;4.32;1.23;;;;;;;;;;700822;28;956;-63
2023/10/30 00:28:02;;;;;;;4.22;1.05;;;;;;;;;;695663;28;912;-64
2023/10/30 00:28:22;;;;;;;5.13;1.23;;;;;;;;;;695095;28;1513;-64
2023/10/30 00:28:42;;;;;;;4.80;1.37;;;;;;;;;;698821;28;809;-64
2023/10/30 00:29:03;;;;;;;5.33;1.20;;;;;;;;;;701546;28;916;-64
2023/10/30 00:29:23;;;;;;;4.45;1.10;;;;;;;;;;700038;28;1871;-64
2023/10/30 00:29:44;;;;;;;3.53;1.10;;;;;;;;;;698987;28;1382;-64
2023/10/30 00:30:05;;;;;;;4.00;1.25;;;;;;;;;;702533;28;855;-64
2023/10/30 00:30:27;;;;;;;4.28;1.33;;;;;;;;;;698409;28;4558;-64
2023/10/30 00:30:47;;;;;;;4.80;1.30;;;;;;;;;;700134;28;891;-64
2023/10/30 00:31:08;;;;;;;5.22;1.20;;;;;;;;;;696194;28;991;-63
2023/10/30 00:31:28;;;;;;;6.90;1.47;;;;;;;;;;697084;28;2395;-63
2023/10/30 00:31:48;;;;;;;5.13;1.33;;;;;;;;;;696439;28;1427;-64
2023/10/30 00:32:08;;;;;;;5.15;1.30;;;;;;;;;;697314;28;1266;-64
2023/10/30 00:32:30;;;;;;;4.93;1.33;;;;;;;;;;695509;28;1834;-64
2023/10/30 00:32:50;;;;;;;6.82;1.65;;;;;;;;;;693583;28;860;-64
2023/10/30 00:33:11;;;;;;;7.37;1.50;;;;;;;;;;697400;28;791;-63
2023/10/30 00:33:31;;;;;;;6.63;1.25;;;;;;;;;;695196;28;4677;-64
2023/10/30 00:33:53;;;;;;;5.30;1.20;;;;;;;;;;693341;28;1342;-64
2023/10/30 00:34:13;;;;;;;3.97;1.20;;;;;;;;;;696833;28;1632;-64
2023/10/30 00:34:34;;;;;;;6.57;1.30;;;;;;;;;;701713;28;1570;-64
2023/10/30 00:34:54;;;;;;;7.33;1.40;;;;;;;;;;703288;28;872;-64
2023/10/30 00:35:14;;;;;;;5.10;1.35;;;;;;;;;;699019;28;1756;-63
2023/10/30 00:35:34;;;;;;;6.07;1.30;;;;;;;;;;697587;28;1628;-64
2023/10/30 00:35:55;;;;;;;6.80;1.40;;;;;;;;;;699271;28;872;-63
2023/10/30 00:36:15;;;;;;;5.38;1.20;;;;;;;;;;696667;28;1755;-63
2023/10/30 00:36:36;;;;;;;4.80;1.20;;;;;;;;;;699117;28;4346;-64
2023/10/30 00:36:56;;;;;;;4.63;1.23;;;;;;;;;;700515;28;904;-63
2023/10/30 00:37:17;;;;;;;5.80;1.20;;;;;;;;;;700450;28;1320;-64
2023/10/30 00:37:37;;;;;;;7.40;1.30;;;;;;;;;;699309;28;1677;-63
2023/10/30 00:37:58;;;;;;;7.70;1.30;;;;;;;;;;699904;28;1562;-64
2023/10/30 00:38:18;;;;;;;5.78;1.20;;;;;;;;;;700537;28;1975;-64
2023/10/30 00:38:39;;;;;;;4.88;1.15;;;;;;;;;;703256;28;1117;-64
2023/10/30 00:38:59;;;;;;;6.70;1.30;;;;;;;;;;704237;28;1224;-64
2023/10/30 00:39:20;;;;;;;6.75;1.27;;;;;;;;;;702644;28;2028;-65
2023/10/30 00:39:40;;;;;;;5.20;1.30;;;;;;;;;;701041;28;6695;-63
2023/10/30 00:40:01;;;;;;;5.15;1.20;;;;;;;;;;701036;28;848;-64
2023/10/30 00:40:21;;;;;;;6.20;1.33;;;;;;;;;;696703;28;1606;-62
2023/10/30 00:40:41;;;;;;;7.00;1.50;;;;;;;;;;695930;28;947;-64
2023/10/30 00:41:02;;;;;;;6.07;1.40;;;;;;;;;;696003;28;876;-63
2023/10/30 00:41:22;;;;;;;5.07;1.23;;;;;;;;;;694512;28;931;-63
2023/10/30 00:41:43;;;;;;;4.68;1.15;;;;;;;;;;698989;28;871;-63
2023/10/30 00:42:04;;;;;;;4.90;1.40;;;;;;;;;;699036;28;1000;-63
2023/10/30 00:42:27;;;;;;;4.18;1.20;;;;;;;;;;695548;28;4511;-64
2023/10/30 00:42:47;;;;;;;5.65;1.20;;;;;;;;;;701278;28;832;-62
2023/10/30 00:43:07;;;;;;;6.77;1.33;;;;;;;;;;699587;28;805;-64
2023/10/30 00:43:28;;;;;;;6.60;1.30;;;;;;;;;;700776;28;1645;-62
2023/10/30 00:43:48;;;;;;;4.97;1.40;;;;;;;;;;702598;28;904;-63
2023/10/30 00:44:08;;;;;;;6.83;1.40;;;;;;;;;;699693;28;1399;-63
2023/10/30 00:44:29;;;;;;;6.18;1.30;;;;;;;;;;697027;28;1726;-63
2023/10/30 00:44:49;;;;;;;6.23;1.30;;;;;;;;;;700395;28;857;-63
2023/10/30 00:45:12;;;;;;;5.28;1.50;;;;;;;;;;699838;28;878;-64
2023/10/30 00:45:32;;;;;;;5.07;1.30;;;;;;;;;;698032;28;4563;-63
2023/10/30 00:45:53;;;;;;;6.10;1.30;;;;;;;;;;695589;28;1192;-63
2023/10/30 00:46:13;;;;;;;5.93;1.40;;;;;;;;;;697678;28;911;-64
2023/10/30 00:46:33;;;;;;;6.30;1.50;;;;;;;;;;695601;28;1791;-63
2023/10/30 00:46:54;;;;;;;6.35;1.42;;;;;;;;;;700073;28;931;-63
2023/10/30 00:47:14;;;;;;;6.73;1.27;;;;;;;;;;699141;28;5661;-63
2023/10/30 00:47:38;;;;;;;8.57;1.50;;;;;;;;;;699281;28;2608;-63
2023/10/30 00:47:58;;;;;;;7.45;1.30;;;;;;;;;;705446;27;1017;-64
2023/10/30 00:48:19;;;;;;;8.85;1.70;;;;;;;;;;703801;28;1636;-63
2023/10/30 00:48:39;;;;;;;7.40;1.90;;;;;;;;;;698595;28;4336;-64
2023/10/30 00:48:59;;;;;;;7.43;1.40;;;;;;;;;;701491;28;980;-62
2023/10/30 00:49:20;;;;;;;5.73;1.40;;;;;;;;;;698733;28;1046;-64
2023/10/30 00:49:40;;;;;;;4.57;1.15;;;;;;;;;;699632;28;927;-63
2023/10/30 00:50:01;;;;;;;5.50;1.27;;;;;;;;;;699442;28;1039;-64
2023/10/30 00:50:21;;;;;;;5.80;1.37;;;;;;;;;;700206;28;1565;-63
2023/10/30 00:50:41;;;;;;;5.53;1.30;;;;;;;;;;701195;28;855;-63
2023/10/30 00:51:02;;;;;;;4.17;1.00;;;;;;;;;;700865;28;1248;-63
2023/10/30 00:51:22;;;;;;;5.87;1.10;;;;;;;;;;698293;28;4374;-63
2023/10/30 00:51:43;;;;;;;5.35;1.10;;;;;;;;;;697665;28;1734;-64
2023/10/30 00:52:03;;;;;;;3.93;1.30;;;;;;;;;;701262;28;1126;-63
2023/10/30 00:52:23;;;;;;;7.30;1.70;;;;;;;;;;697274;28;1510;-64
2023/10/30 00:52:43;;;;;;;7.27;1.50;;;;;;;;;;698309;28;1294;-63
2023/10/30 00:53:04;;;;;;;5.60;1.17;;;;;;;;;;701013;28;722;-64
2023/10/30 00:53:24;;;;;;;6.70;1.40;;;;;;;;;;699943;28;1836;-63
2023/10/30 00:53:44;;;;;;;6.87;1.50;;;;;;;;;;700829;28;1466;-64
2023/10/30 00:54:05;;;;;;;5.87;1.27;;;;;;;;;;701263;28;1052;-63
2023/10/30 00:54:25;;;;;;;6.70;1.40;;;;;;;;;;694122;28;4591;-64
2023/10/30 00:54:45;;;;;;;5.87;1.40;;;;;;;;;;694243;28;1432;-64
2023/10/30 00:55:06;;;;;;;5.03;1.20;;;;;;;;;;694040;28;824;-63
2023/10/30 00:55:26;;;;;;;6.00;1.20;;;;;;;;;;692488;28;891;-64
2023/10/30 00:55:50;;;;;;;6.45;1.45;;;;;;;;;;698893;28;1319;-63
2023/10/30 00:56:10;;;;;;;7.55;1.63;;;;;;;;;;695960;28;979;-63
2023/10/30 00:56:30;;;;;;;7.72;1.60;;;;;;;;;;698411;28;1753;-63
2023/10/30 00:56:51;;;;;;;5.03;1.43;;;;;;;;;;696544;28;1026;-63
2023/10/30 00:57:11;;;;;;;5.10;1.37;;;;;;;;;;697148;28;820;-63
2023/10/30 00:57:31;;;;;;;5.03;1.20;;;;;;;;;;692728;28;6405;-63
2023/10/30 00:57:52;;;;;;;6.97;1.53;;;;;;;;;;696902;28;939;-64
2023/10/30 00:58:12;;;;;;;5.67;1.20;;;;;;;;;;696273;28;1911;-63
2023/10/30 00:58:33;;;;;;;6.37;1.40;;;;;;;;;;695259;28;3640;-65
2023/10/30 00:58:53;;;;;;;6.25;1.20;;;;;;;;;;697842;28;943;-63
2023/10/30 00:59:14;;;;;;;5.43;1.20;;;;;;;;;;695497;28;1128;-63
2023/10/30 00:59:34;;;;;;;4.95;1.17;;;;;;;;;;696969;28;1539;-62
2023/10/30 00:59:55;;;;;;;5.07;1.27;;;;;;;;;;695720;28;809;-64
2023/10/30 01:00:15;;;;;;;4.78;1.27;;;;;;;;;;698487;28;904;-62
2023/10/30 01:00:36;;;;;;;5.27;1.20;;;;;;;;;;696470;28;4267;-64
2023/10/30 01:00:56;;;;;;;5.03;1.40;;;;;;;;;;697994;28;987;-64
2023/10/30 01:01:17;;;;;;;5.00;1.10;;;;;;;;;;699422;28;1284;-64
2023/10/30 01:01:37;;;;;;;4.55;1.10;;;;;;;;;;694164;28;1819;-63
2023/10/30 01:01:57;;;;;;;6.60;1.90;;;;;;;;;;698259;28;967;-64
2023/10/30 01:02:18;;;;;;;6.07;1.90;;;;;;;;;;698375;28;1314;-63
2023/10/30 01:02:39;;;;;;;5.53;1.20;;;;;;;;;;699890;28;1768;-64
2023/10/30 01:03:00;;;;;;;4.07;1.30;;;;;;;;;;701343;28;924;-64
2023/10/30 01:03:23;;;;;;;4.83;1.40;;;;;;;;;;698870;28;1535;-64
2023/10/30 01:03:43;;;;;;;4.85;1.23;;;;;;;;;;699416;28;4737;-63
2023/10/30 01:04:05;;;;;;;6.18;1.30;;;;;;;;;;696791;28;1321;-63
2023/10/30 01:04:27;;;;;;;4.90;1.02;;;;;;;;;;701877;28;1715;-64
2023/10/30 01:04:47;;;;;;;6.37;1.40;;;;;;;;;;703322;28;946;-63
2023/10/30 01:05:08;;;;;;;7.43;1.57;;;;;;;;;;697677;28;976;-63
2023/10/30 01:05:29;;;;;;;7.10;1.35;;;;;;;;;;695572;28;913;-65
2023/10/30 01:05:58;;;;;;;5.00;1.20;;;;;;;;;;695171;28;841;-63
2023/10/30 01:06:18;;;;;;;4.68;1.08;;;;;;;;;;698311;28;809;-63
2023/10/30 01:06:39;;;;;;;4.63;1.10;;;;;;;;;;693660;28;4294;-64
2023/10/30 01:06:59;;;;;;;4.63;1.20;;;;;;;;;;694050;28;1231;-63
2023/10/30 01:07:19;;;;;;;6.03;1.40;;;;;;;;;;692642;28;1026;-63
2023/10/30 01:07:40;;;;;;;5.90;1.30;;;;;;;;;;695422;28;1471;-63
2023/10/30 01:08:01;;;;;;;6.00;1.40;;;;;;;;;;697928;28;1204;-64
2023/10/30 01:08:21;;;;;;;5.95;1.38;;;;;;;;;;696713;28;1734;-64
2023/10/30 01:08:41;;;;;;;7.70;1.43;;;;;;;;;;696933;28;908;-64
2023/10/30 01:09:02;;;;;;;10.10;1.63;;;;;;;;;;699512;28;1143;-65
2023/10/30 01:09:22;;;;;;;5.18;1.20;;;;;;;;;;700546;28;4270;-64
2023/10/30 01:09:43;;;;;;;6.28;1.00;;;;;;;;;;699294;28;1348;-63
2023/10/30 01:10:03;;;;;;;5.40;1.13;;;;;;;;;;700437;28;866;-63
2023/10/30 01:10:24;;;;;;;5.22;1.33;;;;;;;;;;695772;28;2194;-67
2023/10/30 01:10:44;;;;;;;6.13;1.30;;;;;;;;;;697056;28;769;-63
2023/10/30 01:11:04;;;;;;;6.17;1.40;;;;;;;;;;700591;28;898;-65
2023/10/30 01:11:25;;;;;;;6.40;1.45;;;;;;;;;;698440;28;1521;-63
2023/10/30 01:11:45;;;;;;;5.00;1.40;;;;;;;;;;698998;28;833;-64
2023/10/30 01:12:05;;;;;;;6.43;1.30;;;;;;;;;;699629;28;864;-63
2023/10/30 01:12:25;;;;;;;6.82;1.35;;;;;;;;;;698549;28;4247;-64
2023/10/30 01:12:46;;;;;;;5.60;1.50;;;;;;;;;;697818;28;1421;-64
2023/10/30 01:13:06;;;;;;;5.87;1.30;;;;;;;;;;697698;28;1365;-62
2023/10/30 01:13:27;;;;;;;7.15;1.73;;;;;;;;;;696724;28;1680;-65
2023/10/30 01:13:49;;;;;;;7.68;1.80;;;;;;;;;;697748;28;1054;-65
2023/10/30 01:14:10;;;;;;;6.53;1.77;;;;;;;;;;698770;28;805;-64
2023/10/30 01:14:31;;;;;;;6.45;1.83;;;;;;;;;;696660;28;1601;-63
2023/10/30 01:14:51;;;;;;;7.87;1.30;;;;;;;;;;698480;28;825;-64
2023/10/30 01:15:12;;;;;;;6.07;1.20;;;;;;;;;;698682;28;790;-66
2023/10/30 01:15:33;;;;;;;4.90;1.27;;;;;;;;;;696054;28;4306;-64
2023/10/30 01:15:54;;;;;;;8.55;1.40;;;;;;;;;;697956;28;891;-63
2023/10/30 01:16:15;;;;;;;4.57;1.20;;;;;;;;;;697356;28;860;-63
2023/10/30 01:16:35;;;;;;;5.43;1.77;;;;;;;;;;695894;28;2438;-65
2023/10/30 01:16:56;;;;;;;5.97;1.50;;;;;;;;;;695355;28;1168;-66
2023/10/30 01:17:16;;;;;;;5.27;1.20;;;;;;;;;;695839;28;932;-64
2023/10/30 01:17:37;;;;;;;4.67;1.20;;;;;;;;;;694418;28;1801;-64
2023/10/30 01:17:57;;;;;;;6.82;1.17;;;;;;;;;;698698;28;903;-64
2023/10/30 01:18:18;;;;;;;7.45;1.30;;;;;;;;;;700045;28;1913;-63
2023/10/30 01:18:38;;;;;;;5.40;1.50;;;;;;;;;;697144;28;4307;-64
2023/10/30 01:18:59;;;;;;;4.47;1.20;;;;;;;;;;703890;28;1263;-64
2023/10/30 01:19:20;;;;;;;5.85;1.30;;;;;;;;;;702771;28;844;-61
2023/10/30 01:19:40;;;;;;;5.72;1.20;;;;;;;;;;701269;28;1725;-63
2023/10/30 01:20:02;;;;;;;6.07;1.23;;;;;;;;;;701299;28;935;-63
2023/10/30 01:20:23;;;;;;;7.90;1.60;;;;;;;;;;701657;28;1861;-64
2023/10/30 01:20:43;;;;;;;7.50;1.60;;;;;;;;;;705733;27;923;-64
2023/10/30 01:21:07;;;;;;;5.30;1.43;;;;;;;;;;705068;27;3522;-64
2023/10/30 01:21:28;;;;;;;5.05;1.20;;;;;;;;;;703356;27;4703;-65
2023/10/30 01:21:48;;;;;;;5.93;1.30;;;;;;;;;;706016;27;924;-64
2023/10/30 01:22:08;;;;;;;4.53;1.40;;;;;;;;;;703231;28;1178;-62
2023/10/30 01:22:29;;;;;;;4.80;1.33;;;;;;;;;;701125;28;1668;-64
2023/10/30 01:22:49;;;;;;;4.82;1.38;;;;;;;;;;703252;28;746;-62
2023/10/30 01:23:09;;;;;;;6.30;1.40;;;;;;;;;;703153;28;1247;-62
2023/10/30 01:23:30;;;;;;;6.57;1.55;;;;;;;;;;702168;28;1741;-64
2023/10/30 01:23:50;;;;;;;4.63;1.27;;;;;;;;;;702921;28;1109;-64
2023/10/30 01:24:11;;;;;;;5.68;1.30;;;;;;;;;;700326;28;1207;-62
2023/10/30 01:24:31;;;;;;;6.20;1.33;;;;;;;;;;697006;28;4403;-65
2023/10/30 01:24:51;;;;;;;6.70;1.30;;;;;;;;;;699305;28;920;-63
2023/10/30 01:25:12;;;;;;;6.72;1.30;;;;;;;;;;696934;28;877;-63
2023/10/30 01:25:32;;;;;;;6.60;1.30;;;;;;;;;;697894;28;1922;-63
2023/10/30 01:25:53;;;;;;;6.27;1.40;;;;;;;;;;699142;28;887;-63
2023/10/30 01:26:13;;;;;;;7.03;1.40;;;;;;;;;;701625;28;808;-64
2023/10/30 01:26:33;;;;;;;6.17;1.20;;;;;;;;;;698089;28;1528;-64
2023/10/30 01:26:54;;;;;;;5.97;1.33;;;;;;;;;;698872;28;840;-64
2023/10/30 01:27:14;;;;;;;6.73;1.70;;;;;;;;;;704103;28;1609;-64
2023/10/30 01:27:34;;;;;;;6.20;1.37;;;;;;;;;;701812;28;5176;-63
2023/10/30 01:27:54;;;;;;;6.07;1.40;;;;;;;;;;703702;28;868;-64
2023/10/30 01:28:15;;;;;;;5.90;1.50;;;;;;;;;;703659;28;921;-65
2023/10/30 01:28:35;;;;;;;7.10;1.43;;;;;;;;;;696453;28;1707;-63
2023/10/30 01:28:55;;;;;;;6.63;1.30;;;;;;;;;;698361;28;979;-64
2023/10/30 01:29:16;;;;;;;6.43;1.48;;;;;;;;;;698410;28;844;-64
2023/10/30 01:29:36;;;;;;;5.17;1.37;;;;;;;;;;693541;28;1763;-66
2023/10/30 01:29:57;;;;;;;5.07;1.30;;;;;;;;;;691781;28;874;-64
2023/10/30 01:30:17;;;;;;;5.32;1.25;;;;;;;;;;691760;28;1694;-64
2023/10/30 01:30:37;;;;;;;6.17;1.30;;;;;;;;;;696092;28;4518;-64
2023/10/30 01:30:58;;;;;;;8.00;1.57;;;;;;;;;;697728;28;721;-65
2023/10/30 01:31:18;;;;;;;7.43;1.70;;;;;;;;;;700824;28;1410;-64
2023/10/30 01:31:39;;;;;;;5.97;1.30;;;;;;;;;;701080;28;2298;-64
2023/10/30 01:32:00;;;;;;;7.15;1.40;;;;;;;;;;703093;28;959;-64
2023/10/30 01:32:20;;;;;;;5.78;1.30;;;;;;;;;;704255;27;974;-63
2023/10/30 01:32:40;;;;;;;4.80;1.40;;;;;;;;;;704442;27;2584;-65
2023/10/30 01:33:00;;;;;;;4.70;1.20;;;;;;;;;;703720;28;1394;-64
2023/10/30 01:33:22;;;;;;;4.37;1.10;;;;;;;;;;695632;28;4461;-63
2023/10/30 01:33:43;;;;;;;4.82;1.10;;;;;;;;;;691513;28;1998;-64
2023/10/30 01:34:03;;;;;;;5.53;1.20;;;;;;;;;;692526;28;1300;-64
2023/10/30 01:34:24;;;;;;;7.50;1.30;;;;;;;;;;692841;28;844;-64
2023/10/30 01:34:44;;;;;;;5.30;1.20;;;;;;;;;;691932;28;1428;-63
2023/10/30 01:35:04;;;;;;;4.22;1.13;;;;;;;;;;693356;28;928;-65
2023/10/30 01:35:25;;;;;;;7.03;1.70;;;;;;;;;;697306;28;1811;-64
2023/10/30 01:35:45;;;;;;;6.97;1.60;;;;;;;;;;696363;28;809;-63
2023/10/30 01:36:06;;;;;;;6.33;1.20;;;;;;;;;;698074;28;823;-64
2023/10/30 01:36:26;;;;;;;5.40;1.52;;;;;;;;;;695407;28;4317;-64
2023/10/30 01:36:47;;;;;;;7.10;2.10;;;;;;;;;;701232;28;880;-64
2023/10/30 01:37:07;;;;;;;5.47;1.80;;;;;;;;;;693369;28;1277;-64
2023/10/30 01:37:27;;;;;;;6.45;1.27;;;;;;;;;;696701;28;1727;-63
2023/10/30 01:37:48;;;;;;;5.93;1.27;;;;;;;;;;700384;28;789;-63
2023/10/30 01:38:09;;;;;;;5.95;1.50;;;;;;;;;;697494;28;1287;-62
2023/10/30 01:38:29;;;;;;;6.28;1.27;;;;;;;;;;692056;28;1969;-63
2023/10/30 01:38:49;;;;;;;5.00;1.20;;;;;;;;;;695913;28;1202;-63
2023/10/30 01:39:09;;;;;;;5.73;1.60;;;;;;;;;;695376;28;1294;-63
2023/10/30 01:39:30;;;;;;;7.27;1.40;;;;;;;;;;696277;28;4315;-63
2023/10/30 01:39:50;;;;;;;5.30;1.30;;;;;;;;;;695335;28;951;-64
2023/10/30 01:40:11;;;;;;;6.40;1.80;;;;;;;;;;696912;28;778;-63
2023/10/30 01:40:31;;;;;;;7.20;1.80;;;;;;;;;;696691;28;1732;-63
2023/10/30 01:40:51;;;;;;;7.27;1.33;;;;;;;;;;695654;28;1277;-64
2023/10/30 01:41:12;;;;;;;6.63;1.27;;;;;;;;;;692916;28;1678;-63
2023/10/30 01:41:32;;;;;;;7.63;1.30;;;;;;;;;;694031;28;1499;-64
2023/10/30 01:41:53;;;;;;;6.10;1.30;;;;;;;;;;697322;28;842;-64
2023/10/30 01:42:14;;;;;;;5.07;1.20;;;;;;;;;;696481;28;825;-64
2023/10/30 01:42:35;;;;;;;4.88;1.17;;;;;;;;;;695860;28;4649;-64
2023/10/30 01:42:55;;;;;;;5.33;1.10;;;;;;;;;;699386;28;954;-64
2023/10/30 01:43:15;;;;;;;5.77;1.37;;;;;;;;;;700521;28;884;-64
2023/10/30 01:43:36;;;;;;;9.13;1.70;;;;;;;;;;696839;28;1840;-63
2023/10/30 01:43:56;;;;;;;7.97;1.40;;;;;;;;;;696663;28;1103;-64
2023/10/30 01:44:16;;;;;;;6.13;1.27;;;;;;;;;;696486;28;884;-63
2023/10/30 01:44:52;;;;;;;6.00;1.23;;;;;;;;;;697904;28;1547;-65
2023/10/30 01:45:12;;;;;;;3.75;1.08;;;;;;;;;;703616;28;896;-63
2023/10/30 01:45:33;;;;;;;4.97;1.27;;;;;;;;;;703429;27;4505;-64
2023/10/30 01:45:53;;;;;;;5.85;1.20;;;;;;;;;;703680;28;919;-63
2023/10/30 01:46:13;;;;;;;5.70;1.83;;;;;;;;;;704106;28;895;-63
2023/10/30 01:46:33;;;;;;;6.23;1.60;;;;;;;;;;701108;28;1632;-65
2023/10/30 01:46:54;;;;;;;5.07;1.33;;;;;;;;;;703294;28;883;-64
2023/10/30 01:47:14;;;;;;;6.13;1.20;;;;;;;;;;704066;28;5886;-64
2023/10/30 01:47:34;;;;;;;7.60;1.30;;;;;;;;;;698912;28;2031;-64
2023/10/30 01:47:55;;;;;;;8.65;1.90;;;;;;;;;;703513;28;801;-64
2023/10/30 01:48:16;;;;;;;6.20;1.30;;;;;;;;;;703257;28;1445;-64
2023/10/30 01:48:36;;;;;;;6.67;1.70;;;;;;;;;;699026;28;4448;-64
2023/10/30 01:48:57;;;;;;;6.47;1.40;;;;;;;;;;697493;28;1393;-64
2023/10/30 01:49:18;;;;;;;6.18;1.38;;;;;;;;;;696871;28;864;-64
2023/10/30 01:49:38;;;;;;;4.47;1.40;;;;;;;;;;697243;28;1542;-64
2023/10/30 01:50:00;;;;;;;5.93;1.30;;;;;;;;;;695456;28;1116;-64
2023/10/30 01:50:20;;;;;;;7.03;1.55;;;;;;;;;;697949;28;929;-63
2023/10/30 01:50:41;;;;;;;7.23;1.40;;;;;;;;;;692604;28;1936;-63
2023/10/30 01:51:02;;;;;;;5.50;1.33;;;;;;;;;;695488;28;1610;-64
2023/10/30 01:51:23;;;;;;;6.38;1.55;;;;;;;;;;693222;28;4318;-64
2023/10/30 01:51:43;;;;;;;5.80;1.40;;;;;;;;;;695298;28;2399;-64
2023/10/30 01:52:04;;;;;;;5.80;1.40;;;;;;;;;;699457;28;851;-64
2023/10/30 01:52:26;;;;;;;5.40;1.30;;;;;;;;;;700692;28;1334;-64
2023/10/30 01:52:46;;;;;;;5.28;1.17;;;;;;;;;;699458;28;1897;-63
2023/10/30 01:53:06;;;;;;;4.40;1.23;;;;;;;;;;701332;28;939;-64
2023/10/30 01:53:31;;;;;;;4.70;1.20;;;;;;;;;;701357;28;1768;-64
2023/10/30 01:53:52;;;;;;;4.40;1.33;;;;;;;;;;699728;28;1421;-64
2023/10/30 01:54:13;;;;;;;6.00;1.43;;;;;;;;;;701201;28;1373;-63
2023/10/30 01:54:33;;;;;;;4.80;1.17;;;;;;;;;;699122;28;4475;-63
2023/10/30 01:54:54;;;;;;;4.50;1.20;;;;;;;;;;703123;28;855;-64
2023/10/30 01:55:14;;;;;;;4.77;1.40;;;;;;;;;;702493;28;847;-64
2023/10/30 01:55:37;;;;;;;6.22;1.70;;;;;;;;;;700633;28;1575;-64
2023/10/30 01:55:58;;;;;;;5.30;1.40;;;;;;;;;;701327;28;1283;-64
2023/10/30 01:56:20;;;;;;;5.13;1.00;;;;;;;;;;703503;28;1267;-64
2023/10/30 01:56:40;;;;;;;6.30;1.63;;;;;;;;;;699013;28;1636;-63
2023/10/30 01:57:00;;;;;;;7.07;1.88;;;;;;;;;;698189;28;1415;-63
2023/10/30 01:57:22;;;;;;;8.97;1.50;;;;;;;;;;697471;28;4400;-64
2023/10/30 01:57:42;;;;;;;5.85;1.13;;;;;;;;;;697383;28;1721;-63
2023/10/30 01:58:02;;;;;;;4.55;1.02;;;;;;;;;;697098;28;1131;-64
2023/10/30 01:58:23;;;;;;;6.17;1.30;;;;;;;;;;698490;28;1909;-64
2023/10/30 01:58:44;;;;;;;5.55;1.45;;;;;;;;;;699298;28;2270;-65
2023/10/30 01:59:05;;;;;;;8.00;1.65;;;;;;;;;;700732;28;967;-64
2023/10/30 01:59:25;;;;;;;6.83;1.20;;;;;;;;;;698219;28;1429;-65
2023/10/30 01:59:47;;;;;;;6.05;1.20;;;;;;;;;;694090;28;1777;-64
2023/10/30 02:00:07;;;;;;;5.70;1.20;;;;;;;;;;695308;28;1618;-64
2023/10/30 02:00:33;;;;;;;7.20;1.40;;;;;;;;;;693308;28;4260;-64
2023/10/30 02:00:53;;;;;;;7.97;1.50;;;;;;;;;;693939;28;1580;-65
2023/10/30 02:01:14;;;;;;;6.87;1.40;;;;;;;;;;696740;28;865;-64
2023/10/30 02:01:35;;;;;;;4.70;1.20;;;;;;;;;;694730;28;2337;-64
2023/10/30 02:01:55;;;;;;;6.97;1.40;;;;;;;;;;699376;28;930;-63
2023/10/30 02:02:19;;;;;;;5.87;1.43;;;;;;;;;;697496;28;1266;-63
2023/10/30 02:02:40;;;;;;;6.13;1.20;;;;;;;;;;693800;28;2163;-64
2023/10/30 02:03:02;;;;;;;5.43;1.30;;;;;;;;;;694000;28;1385;-64
2023/10/30 02:03:22;;;;;;;7.15;1.30;;;;;;;;;;694179;28;4328;-64
2023/10/30 02:03:42;;;;;;;6.13;1.50;;;;;;;;;;692348;28;1309;-64
2023/10/30 02:04:02;;;;;;;6.60;1.33;;;;;;;;;;696394;28;1702;-65
2023/10/30 02:04:23;;;;;;;6.37;1.23;;;;;;;;;;697590;28;920;-64
2023/10/30 02:04:44;;;;;;;7.00;1.40;;;;;;;;;;696513;28;1872;-64
2023/10/30 02:05:05;;;;;;;5.90;1.20;;;;;;;;;;696989;28;865;-64
2023/10/30 02:05:26;;;;;;;7.15;1.23;;;;;;;;;;696254;28;1199;-64
2023/10/30 02:05:46;;;;;;;6.57;1.50;;;;;;;;;;696818;28;1741;-64
2023/10/30 02:06:06;;;;;;;6.83;1.30;;;;;;;;;;697167;28;871;-63
2023/10/30 02:06:27;;;;;;;7.90;1.47;;;;;;;;;;697036;28;4500;-64
2023/10/30 02:06:47;;;;;;;7.13;1.60;;;;;;;;;;699185;28;1691;-63
2023/10/30 02:07:08;;;;;;;8.17;1.90;;;;;;;;;;694957;28;988;-64
2023/10/30 02:07:29;;;;;;;7.00;1.53;;;;;;;;;;694861;28;1566;-64
2023/10/30 02:07:49;;;;;;;7.70;2.20;;;;;;;;;;696263;28;884;-64
2023/10/30 02:08:10;;;;;;;7.00;2.00;;;;;;;;;;700870;28;789;-64
2023/10/30 02:08:31;;;;;;;6.55;1.80;;;;;;;;;;697786;28;1752;-62
2023/10/30 02:08:51;;;;;;;6.22;1.60;;;;;;;;;;701409;28;785;-64
2023/10/30 02:09:11;;;;;;;6.70;1.40;;;;;;;;;;703895;28;1263;-63